Time;durP1;ratioP1;P1;durP2;ratioP2;P2;SDS_P1;SDS_P2;PMS_P1;PMS_P2;Temp;Humidity;BMP_temperature;BMP_pressure;BME280_temperature;BME280_humidity;BME280_pressure;Samples;Min_cycle;Max_cycle;Signal;HPM_P1;HPM_P2
2023/09/29 00:02:03;;;;;;;;;17.40;17.00;;;;;19.54;100.00;99324.19;6221815;28;96742;-64
2023/09/29 00:05:07;;;;;;;;;18.00;16.25;;;;;19.46;100.00;99325.53;6240918;28;96361;-64
2023/09/29 00:08:15;;;;;;;;;17.60;17.60;;;;;19.36;100.00;99329.03;6240542;28;96528;-64
2023/09/29 00:11:20;;;;;;;;;18.00;17.00;;;;;19.23;100.00;99321.31;6240485;28;96925;-63
2023/09/29 00:14:23;;;;;;;;;19.00;19.00;;;;;19.13;100.00;99331.38;6239792;28;96894;-64
2023/09/29 00:17:27;;;;;;;;;18.20;16.20;;;;;19.00;100.00;99328.06;6237815;27;96379;-64
2023/09/29 00:20:30;;;;;;;;;19.40;19.00;;;;;18.85;100.00;99324.44;6219858;28;96687;-64
2023/09/29 00:23:34;;;;;;;;;18.50;18.50;;;;;18.77;100.00;99327.63;6238891;27;96529;-64
2023/09/29 00:26:39;;;;;;;;;21.20;19.00;;;;;18.69;100.00;99325.41;6220188;28;96745;-63
2023/09/29 00:29:43;;;;;;;;;17.00;15.75;;;;;18.65;100.00;99325.13;6237491;28;98184;-63
2023/09/29 00:32:47;;;;;;;;;18.00;17.00;;;;;18.61;100.00;99318.56;6237149;28;96284;-64
2023/09/29 00:35:51;;;;;;;;;19.00;18.00;;;;;18.41;100.00;99323.84;6237614;28;96655;-63
2023/09/29 00:38:54;;;;;;;;;17.00;16.00;;;;;18.35;100.00;99316.69;6220143;28;96292;-63
2023/09/29 00:41:59;;;;;;;;;19.00;19.00;;;;;18.30;100.00;99325.66;6221493;28;96262;-64
2023/09/29 00:45:03;;;;;;;;;22.00;21.00;;;;;18.31;100.00;99318.31;6239971;28;97574;-63
2023/09/29 00:48:08;;;;;;;;;17.00;17.00;;;;;18.30;100.00;99317.47;6221462;28;97226;-64
2023/09/29 00:51:12;;;;;;;;;20.00;18.60;;;;;18.31;100.00;99310.94;6239719;28;96353;-64
2023/09/29 00:54:16;;;;;;;;;18.25;17.75;;;;;18.35;100.00;99314.78;6239348;27;96941;-64
2023/09/29 00:57:21;;;;;;;;;19.00;19.00;;;;;18.39;100.00;99315.06;6220973;28;96368;-64
2023/09/29 01:00:31;;;;;;;;;17.75;15.75;;;;;18.42;100.00;99315.38;6255146;27;97067;-64
2023/09/29 01:03:34;;;;;;;;;18.25;18.00;;;;;18.49;100.00;99313.25;6239717;28;96286;-64
2023/09/29 01:06:38;;;;;;;;;18.20;17.00;;;;;18.52;100.00;99317.38;6239932;28;96937;-64
2023/09/29 01:09:41;;;;;;;;;23.25;20.75;;;;;18.52;100.00;99309.97;6221221;28;96489;-64
2023/09/29 01:12:46;;;;;;;;;18.80;18.00;;;;;18.47;100.00;99318.13;6219917;28;96728;-64
2023/09/29 01:15:49;;;;;;;;;18.00;17.00;;;;;18.43;100.00;99319.75;6238148;27;96789;-64
2023/09/29 01:18:53;;;;;;;;;17.80;17.00;;;;;18.40;100.00;99323.00;6221655;28;96433;-64
2023/09/29 01:21:56;;;;;;;;;17.40;17.00;;;;;18.26;100.00;99312.81;6221768;28;96472;-64
2023/09/29 01:25:01;;;;;;;;;21.60;19.60;;;;;18.24;100.00;99323.97;6220819;28;96444;-64
2023/09/29 01:28:06;;;;;;;;;18.00;16.00;;;;;18.17;100.00;99326.13;6237288;28;96685;-64
2023/09/29 01:31:09;;;;;;;;;18.75;18.00;;;;;18.06;100.00;99316.19;6220604;28;96696;-64
2023/09/29 01:34:12;;;;;;;;;19.50;18.75;;;;;18.03;100.00;99330.38;6230399;28;96638;-64
2023/09/29 01:37:16;;;;;;;;;19.00;18.00;;;;;17.98;100.00;99327.59;6220461;28;98486;-63
2023/09/29 01:40:21;;;;;;;;;19.20;18.00;;;;;17.98;100.00;99333.03;6220309;28;96714;-65
2023/09/29 01:43:25;;;;;;;;;20.00;18.50;;;;;17.92;100.00;99331.34;6238730;28;96310;-64
2023/09/29 01:46:29;;;;;;;;;19.00;18.00;;;;;17.92;100.00;99334.06;6238015;27;96905;-64
2023/09/29 01:49:32;;;;;;;;;20.60;19.00;;;;;17.92;100.00;99334.06;6238837;28;96401;-64
2023/09/29 01:52:35;;;;;;;;;20.25;17.25;;;;;17.89;100.00;99334.56;6243720;27;96357;-65
2023/09/29 01:55:40;;;;;;;;;17.80;16.00;;;;;17.84;100.00;99340.78;6237678;28;96298;-64
2023/09/29 01:58:45;;;;;;;;;17.60;16.60;;;;;17.86;100.00;99338.66;6237403;28;96371;-65
2023/09/29 02:01:49;;;;;;;;;16.80;15.40;;;;;17.83;100.00;99343.81;6237430;28;96339;-64
2023/09/29 02:04:54;;;;;;;;;16.00;15.00;;;;;17.79;100.00;99346.19;6238548;28;96457;-64
2023/09/29 02:07:58;;;;;;;;;15.00;15.00;;;;;17.82;100.00;99344.88;6238517;28;96400;-64
2023/09/29 02:11:02;;;;;;;;;17.00;15.00;;;;;17.81;100.00;99346.78;6238648;28;96437;-64
2023/09/29 02:14:06;;;;;;;;;16.60;16.60;;;;;17.76;100.00;99344.00;6236773;28;96426;-64
2023/09/29 02:17:14;;;;;;;;;18.40;18.00;;;;;17.71;100.00;99343.94;6269394;27;96744;-64
2023/09/29 02:20:20;;;;;;;;;20.00;18.40;;;;;17.59;100.00;99335.09;6214017;28;96869;-64
2023/09/29 02:23:23;;;;;;;;;18.80;17.00;;;;;17.60;100.00;99340.28;6251567;27;96434;-64
2023/09/29 02:26:29;;;;;;;;;18.20;17.20;;;;;17.62;100.00;99340.03;6231658;28;97012;-64
2023/09/29 02:29:32;;;;;;;;;18.50;16.00;;;;;17.60;100.00;99336.72;6236757;28;96304;-64
2023/09/29 02:32:36;;;;;;;;;16.20;16.00;;;;;17.59;100.00;99346.00;6222814;28;96376;-64
2023/09/29 02:35:41;;;;;;;;;21.20;17.00;;;;;17.63;100.00;99347.13;6220401;28;96673;-64
2023/09/29 02:38:45;;;;;;;;;18.00;15.00;;;;;17.64;100.00;99346.06;6237612;27;96377;-63
2023/09/29 02:41:49;;;;;;;;;19.40;18.40;;;;;17.65;100.00;99337.63;6201990;28;96559;-64
2023/09/29 02:44:54;;;;;;;;;17.00;15.00;;;;;17.66;100.00;99335.72;6219277;28;97833;-63
2023/09/29 02:47:57;;;;;;;;;17.00;17.00;;;;;17.66;100.00;99347.44;6236809;28;97523;-63
2023/09/29 02:51:01;;;;;;;;;17.20;16.20;;;;;17.68;100.00;99339.03;6219461;28;97653;-63
2023/09/29 02:54:05;;;;;;;;;19.60;19.00;;;;;17.70;100.00;99339.56;6237266;28;96539;-64
2023/09/29 02:57:09;;;;;;;;;19.00;18.40;;;;;17.75;100.00;99332.25;6218180;28;96884;-64
2023/09/29 03:00:18;;;;;;;;;20.75;18.75;;;;;17.77;100.00;99339.38;6234379;28;96284;-64
2023/09/29 03:03:26;;;;;;;;;17.60;16.40;;;;;17.77;100.00;99339.38;6241548;27;96971;-64
2023/09/29 03:06:30;;;;;;;;;15.60;15.60;;;;;17.66;100.00;99331.09;6219987;28;96519;-63
2023/09/29 03:09:33;;;;;;;;;15.60;14.00;;;;;17.67;100.00;99332.75;6218719;28;96686;-64
2023/09/29 03:12:38;;;;;;;;;16.25;15.25;;;;;17.67;100.00;99332.75;6236731;28;96282;-64
2023/09/29 03:15:43;;;;;;;;;18.00;15.50;;;;;17.69;100.00;99332.50;6223255;27;96889;-63
2023/09/29 03:18:46;;;;;;;;;21.20;20.20;;;;;17.66;100.00;99330.25;6222403;28;98792;-64
2023/09/29 03:21:50;;;;;;;;;20.00;17.40;;;;;17.63;100.00;99323.44;6203973;28;96781;-64
2023/09/29 03:24:53;;;;;;;;;17.50;15.00;;;;;17.65;100.00;99331.34;6221296;27;96759;-64
2023/09/29 03:27:59;;;;;;;;;17.50;16.50;;;;;17.65;100.00;99323.16;6238883;27;96505;-64
2023/09/29 03:31:07;;;;;;;;;15.00;14.00;;;;;17.57;100.00;99329.03;6218838;27;96525;-65
2023/09/29 03:34:10;;;;;;;;;17.20;16.20;;;;;17.54;100.00;99326.84;6215827;28;96627;-64
2023/09/29 03:37:13;;;;;;;;;17.00;14.80;;;;;17.46;100.00;99330.00;6241001;28;96351;-64
2023/09/29 03:40:18;;;;;;;;;16.20;15.20;;;;;17.25;100.00;99304.44;6221203;28;98450;-63
2023/09/29 03:43:23;;;;;;;;;18.00;17.60;;;;;17.36;100.00;99319.81;6239480;28;96282;-63
2023/09/29 03:46:28;;;;;;;;;15.40;15.40;;;;;17.42;100.00;99321.53;6240648;27;96551;-64
2023/09/29 03:49:35;;;;;;;;;15.00;15.00;;;;;17.44;100.00;99321.28;6242910;27;96481;-64
2023/09/29 03:52:39;;;;;;;;;17.00;15.00;;;;;17.44;100.00;99313.09;6237236;28;97037;-64
2023/09/29 03:55:42;;;;;;;;;19.00;18.40;;;;;17.44;100.00;99321.28;6219525;28;97122;-64
2023/09/29 03:58:46;;;;;;;;;16.00;14.40;;;;;17.40;100.00;99312.75;6221225;28;97392;-64
2023/09/29 04:01:50;;;;;;;;;17.40;15.80;;;;;17.39;100.00;99308.41;6247899;27;97334;-64
2023/09/29 04:04:53;;;;;;;;;15.25;14.75;;;;;17.38;100.00;99304.03;6241362;28;96406;-63
2023/09/29 04:07:56;;;;;;;;;13.80;13.00;;;;;17.38;100.00;99306.75;6240306;27;97038;-64
2023/09/29 04:10:59;;;;;;;;;16.00;14.00;;;;;17.36;100.00;99302.63;6241725;27;96250;-64
2023/09/29 04:14:04;;;;;;;;;16.00;14.00;;;;;17.31;100.00;99306.13;6251345;27;96423;-64
2023/09/29 04:17:07;;;;;;;;;16.80;15.80;;;;;17.24;100.00;99294.63;6221406;28;98503;-64
2023/09/29 04:20:11;;;;;;;;;14.40;14.00;;;;;17.30;100.00;99304.47;6240411;28;96218;-63
2023/09/29 04:23:14;;;;;;;;;13.00;12.40;;;;;17.33;100.00;99299.34;6239999;28;96442;-64
2023/09/29 04:26:20;;;;;;;;;14.00;14.00;;;;;17.37;100.00;99301.56;6240168;28;96924;-63
2023/09/29 04:29:24;;;;;;;;;16.60;14.60;;;;;17.35;100.00;99312.69;6240702;28;96865;-63
2023/09/29 04:32:28;;;;;;;;;17.00;16.00;;;;;17.31;100.00;99309.66;6218371;28;96771;-64
2023/09/29 04:35:31;;;;;;;;;17.00;16.40;;;;;17.27;100.00;99305.00;6199296;28;97863;-63
2023/09/29 04:38:34;;;;;;;;;17.00;16.00;;;;;17.29;100.00;99302.84;6219588;28;98690;-64
2023/09/29 04:41:38;;;;;;;;;16.25;16.25;;;;;17.28;100.00;99312.09;6221062;28;96657;-63
2023/09/29 04:44:42;;;;;;;;;15.75;13.75;;;;;17.29;100.00;99311.84;6232066;28;97762;-64
2023/09/29 04:47:46;;;;;;;;;17.00;16.00;;;;;17.31;100.00;99317.84;6236499;28;97227;-64
2023/09/29 04:50:50;;;;;;;;;22.00;20.00;;;;;17.35;100.00;99309.19;6235560;28;96548;-64
2023/09/29 04:53:53;;;;;;;;;19.00;17.00;;;;;17.38;100.00;99309.50;6230271;27;97569;-64
2023/09/29 04:56:57;;;;;;;;;15.60;15.00;;;;;17.41;100.00;99306.25;6233396;28;96397;-63
2023/09/29 05:00:01;;;;;;;;;15.40;15.00;;;;;17.43;100.00;99316.91;6197952;28;96953;-63
2023/09/29 05:03:06;;;;;;;;;15.80;13.80;;;;;17.48;100.00;99316.94;6250684;27;96969;-64
2023/09/29 05:06:09;;;;;;;;;17.00;17.00;;;;;17.55;100.00;99314.81;6216616;28;96452;-64
2023/09/29 05:09:13;;;;;;;;;16.40;15.40;;;;;17.60;100.00;99318.47;6234416;28;96582;-64
2023/09/29 05:12:16;;;;;;;;;16.00;14.60;;;;;17.67;100.00;99319.09;6234629;27;97306;-64
2023/09/29 05:15:21;;;;;;;;;16.25;15.25;;;;;17.77;100.00;99312.94;6217551;28;99625;-63
2023/09/29 05:18:24;;;;;;;;;14.60;14.00;;;;;17.88;100.00;99322.84;6241297;27;96612;-63
2023/09/29 05:21:27;;;;;;;;;18.00;16.00;;;;;18.01;100.00;99318.88;6223451;28;97608;-64
2023/09/29 05:24:30;;;;;;;;;21.00;19.00;;;;;18.15;100.00;99323.63;6217930;28;96705;-64
2023/09/29 05:27:33;;;;;;;;;19.40;17.00;;;;;18.31;100.00;99315.56;6233953;27;97188;-63
2023/09/29 05:30:38;;;;;;;;;18.80;15.40;;;;;18.49;100.00;99320.59;6219848;28;96715;-63
2023/09/29 05:33:42;;;;;;;;;18.40;18.00;;;;;18.65;100.00;99318.84;6237901;28;97005;-64
2023/09/29 05:36:45;;;;;;;;;18.00;17.60;;;;;18.80;100.00;99325.22;6230508;28;97157;-63
2023/09/29 05:39:48;;;;;;;;;17.20;16.80;;;;;18.95;100.00;99321.75;6216708;28;96730;-64
2023/09/29 05:42:51;;;;;;;;;19.00;17.80;;;;;19.11;100.00;99326.19;6236530;27;96259;-64
2023/09/29 05:45:58;;;;;;;;;16.00;14.00;;;;;19.32;100.00;99330.66;6252859;27;96320;-64
2023/09/29 05:49:01;;;;;;;;;18.00;17.00;;;;;19.51;100.00;99333.75;6237099;28;96512;-63
2023/09/29 05:52:05;;;;;;;;;18.00;17.00;;;;;19.66;100.00;99333.78;6238378;27;96940;-64
2023/09/29 05:55:09;;;;;;;;;17.80;16.00;;;;;19.86;100.00;99339.31;6236641;28;96940;-64
2023/09/29 05:58:12;;;;;;;;;15.60;15.00;;;;;20.10;100.00;99339.63;6219675;28;96799;-65
2023/09/29 06:01:17;;;;;;;;;19.00;17.00;;;;;20.29;100.00;99337.97;6238082;28;96285;-64
2023/09/29 06:04:20;;;;;;;;;18.00;16.60;;;;;20.58;100.00;99342.91;6238450;28;96264;-64
2023/09/29 06:07:23;;;;;;;;;17.60;17.00;;;;;20.83;100.00;99339.31;6231698;28;96982;-63
2023/09/29 06:10:27;;;;;;;;;18.67;17.00;;;;;21.07;100.00;99345.81;6237594;28;96392;-64
2023/09/29 06:13:30;;;;;;;;;19.80;18.80;;;;;21.29;100.00;99343.59;6253493;27;96305;-63
2023/09/29 06:16:34;;;;;;;;;19.00;17.00;;;;;21.48;100.00;99341.84;6220060;28;96280;-64
2023/09/29 06:19:38;;;;;;;;;17.00;16.25;;;;;21.71;100.00;99353.25;6238042;28;96916;-64
2023/09/29 06:22:41;;;;;;;;;18.00;17.80;;;;;21.87;100.00;99338.34;6237571;28;96383;-64
2023/09/29 06:25:44;;;;;;;;;20.00;18.80;;;;;22.33;100.00;99349.84;6217988;28;98551;-63
2023/09/29 06:28:47;;;;;;;;;22.00;18.00;;;;;22.69;100.00;99350.34;6218616;28;96433;-63
2023/09/29 06:31:53;;;;;;;;;19.50;18.50;;;;;23.17;100.00;99356.72;6208041;28;96644;-64
2023/09/29 06:34:56;;;;;;;;;20.40;18.40;;;;;23.83;100.00;99354.00;6217304;28;96466;-64
2023/09/29 06:38:00;;;;;;;;;18.40;17.40;;;;;24.37;100.00;99358.16;6207510;28;96827;-64
2023/09/29 06:41:03;;;;;;;;;19.20;18.20;;;;;24.87;100.00;99356.50;6226914;27;97581;-64
2023/09/29 06:44:06;;;;;;;;;24.00;22.00;;;;;25.35;100.00;99355.00;6219208;27;96436;-64
2023/09/29 06:47:11;;;;;;;;;22.60;21.20;;;;;25.92;100.00;99358.19;6236456;28;96948;-64
2023/09/29 06:50:14;;;;;;;;;17.40;15.80;;;;;26.56;100.00;99358.88;6218590;28;97053;-65
2023/09/29 06:53:18;;;;;;;;;18.00;16.00;;;;;27.37;100.00;99365.00;6237288;28;96232;-65
2023/09/29 06:56:21;;;;;;;;;18.00;15.00;;;;;28.07;100.00;99359.31;6236084;28;96306;-65
2023/09/29 06:59:24;;;;;;;;;15.00;14.75;;;;;28.67;100.00;99366.81;6237406;28;96976;-65
2023/09/29 07:02:28;;;;;;;;;16.00;15.00;;;;;29.34;100.00;99366.97;6218337;28;100094;-65
2023/09/29 07:05:32;;;;;;;;;18.00;16.60;;;;;30.02;100.00;99367.72;6236979;28;96335;-65
2023/09/29 07:08:35;;;;;;;;;13.60;13.00;;;;;30.61;100.00;99373.94;6219188;28;96916;-65
2023/09/29 07:11:40;;;;;;;;;19.00;17.60;;;;;31.23;100.00;99376.56;6236303;28;96293;-65
2023/09/29 07:14:43;;;;;;;;;19.00;18.00;;;;;31.77;100.00;99381.94;6235540;28;96957;-65
2023/09/29 07:17:48;;;;;;;;;16.00;14.00;;;;;32.24;99.36;99366.31;6236577;28;96471;-65
2023/09/29 07:20:52;;;;;;;;;17.00;15.00;;;;;32.73;94.33;99382.06;6251248;27;96755;-66
2023/09/29 07:23:56;;;;;;;;;15.80;14.80;;;;;33.13;91.68;99377.16;6233253;27;96786;-65
2023/09/29 07:26:59;;;;;;;;;14.00;14.00;;;;;33.41;89.27;99375.13;6218114;28;96911;-65
2023/09/29 07:30:03;;;;;;;;;16.00;14.60;;;;;33.53;87.69;99379.78;6214784;28;96347;-65
2023/09/29 07:33:09;;;;;;;;;13.60;13.60;;;;;33.84;86.55;99381.75;6217352;28;98816;-64
2023/09/29 07:36:12;;;;;;;;;14.00;13.00;;;;;34.10;82.28;99376.38;6178952;28;98787;-64
2023/09/29 07:39:17;;;;;;;;;13.00;13.00;;;;;34.57;83.56;99372.56;6193832;28;96647;-65
2023/09/29 07:42:21;;;;;;;;;14.00;14.00;;;;;34.88;82.10;99382.81;6213606;28;96898;-65
2023/09/29 07:45:24;;;;;;;;;13.00;13.00;;;;;35.01;77.26;99381.44;6213777;28;96619;-64
2023/09/29 07:48:29;;;;;;;;;14.80;14.00;;;;;35.07;78.35;99375.16;6186729;28;96318;-65
2023/09/29 07:51:33;;;;;;;;;16.00;14.00;;;;;35.31;78.74;99381.63;6220359;28;96266;-64
2023/09/29 07:54:36;;;;;;;;;18.00;16.00;;;;;35.58;76.01;99370.03;6194876;28;98434;-65
2023/09/29 07:57:39;;;;;;;;;14.00;13.00;;;;;36.06;72.75;99378.81;6199551;28;96711;-64
2023/09/29 08:00:43;;;;;;;;;12.75;12.75;;;;;36.32;71.38;99377.97;6233430;28;97384;-64
2023/09/29 08:03:48;;;;;;;;;15.50;15.00;;;;;36.65;72.03;99380.84;6221048;28;96406;-65
2023/09/29 08:06:52;;;;;;;;;14.40;13.60;;;;;36.91;69.21;99371.47;6195173;28;98549;-65
2023/09/29 08:09:56;;;;;;;;;15.80;14.00;;;;;37.23;65.86;99380.25;6214459;28;96385;-65
2023/09/29 08:12:59;;;;;;;;;15.00;13.00;;;;;37.42;70.58;99380.03;6217659;28;96471;-66
2023/09/29 08:16:02;;;;;;;;;15.00;14.00;;;;;37.08;64.48;99372.88;6197477;28;96372;-65
2023/09/29 08:19:06;;;;;;;;;15.00;15.00;;;;;37.30;69.74;99366.25;6208403;28;96496;-65
2023/09/29 08:22:10;;;;;;;;;15.00;13.75;;;;;37.58;61.17;99371.34;6208363;28;96522;-66
2023/09/29 08:25:14;;;;;;;;;18.60;16.60;;;;;37.46;64.66;99380.03;6212847;28;96322;-66
2023/09/29 08:28:17;;;;;;;;;14.60;14.00;;;;;37.74;65.03;99383.09;6229602;28;96558;-66
2023/09/29 08:31:20;;;;;;;;;18.20;17.00;;;;;38.15;63.23;99380.97;6230731;28;97523;-65
2023/09/29 08:34:28;;;;;;;;;16.00;14.00;;;;;38.55;63.99;99380.78;6219279;28;98641;-65
2023/09/29 08:37:32;;;;;;;;;14.33;13.00;;;;;38.81;54.50;99379.63;6239846;28;96358;-65
2023/09/29 08:40:39;;;;;;;;;14.60;14.60;;;;;38.76;53.34;99385.66;6239644;28;96298;-65
2023/09/29 08:43:44;;;;;;;;;13.20;12.20;;;;;38.83;54.89;99382.06;6221327;28;96858;-65
2023/09/29 08:47:03;;;;;;;;;14.00;14.00;;;;;39.16;56.48;99386.56;6239663;28;96799;-65
2023/09/29 08:50:09;;;;;;;;;15.40;13.40;;;;;39.42;53.82;99375.75;6239588;28;96936;-65
2023/09/29 08:53:14;;;;;;;;;14.00;12.60;;;;;39.67;49.47;99375.75;6220930;28;96848;-65
2023/09/29 08:56:18;;;;;;;;;12.33;12.00;;;;;40.09;49.69;99380.50;6221452;28;96381;-65
2023/09/29 08:59:22;;;;;;;;;15.00;14.40;;;;;40.17;47.89;99372.84;6239257;28;96360;-65
2023/09/29 09:02:26;;;;;;;;;16.00;16.00;;;;;40.11;48.12;99371.63;6214321;28;96632;-66
2023/09/29 09:05:31;;;;;;;;;16.25;16.00;;;;;40.18;50.61;99380.06;6213532;28;96473;-65
2023/09/29 09:08:34;;;;;;;;;13.75;12.75;;;;;40.23;47.49;99379.69;6239003;28;96341;-65
2023/09/29 09:11:44;;;;;;;;;14.00;13.20;;;;;40.03;44.93;99381.31;6239155;28;96879;-65
2023/09/29 09:14:47;;;;;;;;;13.75;13.75;;;;;40.44;48.84;99371.13;6221168;28;96546;-65
2023/09/29 09:17:51;;;;;;;;;15.25;14.75;;;;;40.80;44.97;99371.00;6238266;28;97209;-65
2023/09/29 09:20:57;;;;;;;;;12.40;11.40;;;;;40.80;40.16;99373.81;6238585;28;96294;-65
2023/09/29 09:24:00;;;;;;;;;11.50;10.50;;;;;40.85;39.27;99368.53;6235857;27;96647;-65
2023/09/29 09:27:03;;;;;;;;;10.00;9.00;;;;;40.27;37.27;99369.19;6238592;28;96557;-65
2023/09/29 09:30:20;;;;;;;;;10.00;10.00;;;;;40.25;37.32;99369.59;6220215;28;96664;-65
2023/09/29 09:33:25;;;;;;;;;9.60;8.60;;;;;40.13;33.82;99370.00;6235717;28;96444;-65
2023/09/29 09:36:30;;;;;;;;;8.50;8.00;;;;;40.48;38.74;99366.28;6217959;28;96923;-65
2023/09/29 09:39:34;;;;;;;;;10.50;9.75;;;;;40.37;33.40;99359.84;6238412;28;96345;-65
2023/09/29 09:42:39;;;;;;;;;10.80;10.00;;;;;40.38;34.73;99371.97;6222034;28;96293;-65
2023/09/29 09:45:47;;;;;;;;;11.40;11.00;;;;;40.49;34.86;99347.28;6238753;28;96362;-65
2023/09/29 09:48:56;;;;;;;;;9.60;9.60;;;;;40.38;34.61;99355.81;6237919;28;96276;-65
2023/09/29 09:52:06;;;;;;;;;9.00;8.75;;;;;40.77;36.20;99358.47;6238464;28;96961;-65
2023/09/29 09:55:12;;;;;;;;;11.00;10.40;;;;;40.88;34.15;99349.91;6219646;28;96667;-65
2023/09/29 09:58:17;;;;;;;;;10.75;10.00;;;;;40.75;36.19;99357.28;6238516;28;96366;-65
2023/09/29 10:01:21;;;;;;;;;10.00;9.00;;;;;41.09;35.28;99359.09;6220425;28;96708;-65
2023/09/29 10:04:26;;;;;;;;;12.00;10.00;;;;;41.19;31.09;99363.06;6219633;28;96857;-65
2023/09/29 10:07:31;;;;;;;;;10.00;10.00;;;;;40.72;31.20;99358.09;6220042;28;96461;-65
2023/09/29 10:10:36;;;;;;;;;10.00;9.00;;;;;40.92;30.49;99362.00;6219265;28;96412;-65
2023/09/29 10:13:40;;;;;;;;;11.00;11.00;;;;;40.65;30.13;99362.59;6237501;28;96479;-65
2023/09/29 10:16:44;;;;;;;;;9.80;9.80;;;;;40.71;30.20;99356.50;6237447;28;96333;-65
2023/09/29 10:19:51;;;;;;;;;9.60;9.00;;;;;40.64;31.28;99340.38;6237721;28;96604;-65
2023/09/29 10:23:06;;;;;;;;;10.00;10.00;;;;;40.30;31.00;99356.25;6236669;28;96258;-65
2023/09/29 10:26:10;;;;;;;;;10.00;9.00;;;;;40.19;33.86;99348.63;6219823;28;96491;-65
2023/09/29 10:29:21;;;;;;;;;12.00;12.00;;;;;40.54;33.65;99352.50;6235831;27;96310;-65
2023/09/29 10:32:35;;;;;;;;;12.00;11.00;;;;;40.76;33.51;99348.38;6201587;28;98448;-65
2023/09/29 10:35:46;;;;;;;;;8.60;8.60;;;;;40.94;31.27;99351.09;6238047;28;96257;-65
2023/09/29 10:38:53;;;;;;;;;10.00;10.00;;;;;41.16;28.85;99343.28;6219437;28;96283;-64
2023/09/29 10:42:04;;;;;;;;;12.00;11.00;;;;;41.48;31.25;99333.34;6237790;28;96364;-65
2023/09/29 10:45:09;;;;;;;;;11.60;11.00;;;;;41.19;29.35;99314.16;6219004;28;98400;-65
2023/09/29 10:48:12;;;;;;;;;11.00;10.80;;;;;40.96;30.60;99331.66;6237184;28;96847;-64
2023/09/29 10:51:22;;;;;;;;;11.00;10.40;;;;;40.61;29.76;99330.69;6236908;28;96240;-64
2023/09/29 10:54:27;;;;;;;;;10.60;8.00;;;;;40.72;30.49;99330.63;6201310;28;99199;-64
2023/09/29 10:57:33;;;;;;;;;10.00;10.00;;;;;41.00;31.17;99330.47;6218520;28;96503;-64
2023/09/29 11:00:42;;;;;;;;;10.00;9.40;;;;;40.14;28.37;99328.44;6237193;28;96980;-64
2023/09/29 11:03:45;;;;;;;;;13.00;11.00;;;;;39.95;29.66;99321.25;6237293;28;96365;-65
2023/09/29 11:06:50;;;;;;;;;9.00;9.00;;;;;39.68;30.56;99318.09;6202104;28;97461;-65
2023/09/29 11:09:54;;;;;;;;;10.00;10.00;;;;;39.56;31.24;99309.22;6236957;28;96497;-65
2023/09/29 11:12:58;;;;;;;;;10.67;10.67;;;;;39.67;32.15;99308.00;6217729;28;98591;-65
2023/09/29 11:16:04;;;;;;;;;10.00;8.00;;;;;39.44;29.16;99304.00;6236458;28;96278;-65
2023/09/29 11:19:10;;;;;;;;;8.60;7.60;;;;;39.22;29.45;99298.34;6237067;28;96620;-65
2023/09/29 11:22:17;;;;;;;;;12.40;11.00;;;;;39.51;31.71;99295.53;6236739;28;96905;-65
2023/09/29 11:25:22;;;;;;;;;10.40;9.40;;;;;39.18;29.09;99288.28;6236409;28;96452;-65
2023/09/29 11:28:27;;;;;;;;;11.00;10.20;;;;;39.05;30.81;99285.03;6202224;28;97210;-65
2023/09/29 11:31:31;;;;;;;;;11.00;10.40;;;;;39.22;31.88;99278.59;6218227;28;96913;-65
2023/09/29 11:34:34;;;;;;;;;9.20;8.20;;;;;39.47;29.03;99277.78;6218405;28;97719;-65
2023/09/29 11:37:38;;;;;;;;;10.40;9.40;;;;;39.24;28.58;99264.91;6217528;28;96658;-66
2023/09/29 11:40:43;;;;;;;;;8.60;8.00;;;;;39.54;28.98;99274.97;6225627;28;96273;-66
2023/09/29 11:43:47;;;;;;;;;10.00;10.00;;;;;39.42;28.58;99268.53;6189762;28;96569;-66
2023/09/29 11:46:50;;;;;;;;;9.00;8.00;;;;;39.25;30.72;99263.69;6215251;28;96588;-65
2023/09/29 11:49:54;;;;;;;;;8.20;8.00;;;;;37.89;28.73;99262.97;6214693;28;96436;-66
2023/09/29 11:53:00;;;;;;;;;11.40;10.00;;;;;37.99;29.81;99248.16;6214911;28;97489;-65
2023/09/29 11:56:05;;;;;;;;;10.00;10.00;;;;;37.89;28.82;99248.88;6215455;28;97029;-65
2023/09/29 11:59:08;;;;;;;;;9.00;9.00;;;;;38.02;28.97;99238.94;6196851;28;96539;-65
2023/09/29 12:02:13;;;;;;;;;8.20;8.20;;;;;37.63;27.94;99244.38;6196841;28;96753;-66
2023/09/29 12:05:17;;;;;;;;;8.80;8.00;;;;;37.72;29.92;99227.91;6192310;28;98665;-65
2023/09/29 12:08:20;;;;;;;;;10.00;10.00;;;;;37.58;29.34;99239.09;6213129;28;96515;-66
2023/09/29 12:11:25;;;;;;;;;8.00;7.75;;;;;37.34;28.56;99234.91;6214542;28;96344;-66
2023/09/29 12:14:29;;;;;;;;;8.75;7.75;;;;;37.34;30.66;99231.31;6194601;28;98450;-66
2023/09/29 12:17:32;;;;;;;;;8.50;8.00;;;;;37.39;30.58;99226.09;6196792;28;96372;-66
2023/09/29 12:20:35;;;;;;;;;8.00;8.00;;;;;37.74;31.53;99217.06;6196595;28;96834;-65
2023/09/29 12:23:42;;;;;;;;;8.00;7.50;;;;;37.92;32.21;99223.59;6208428;28;96255;-65
2023/09/29 12:26:47;;;;;;;;;9.00;8.00;;;;;38.22;32.70;99214.84;6195166;28;96264;-66
2023/09/29 12:29:50;;;;;;;;;8.50;7.00;;;;;37.93;29.12;99218.75;6191256;28;96410;-65
2023/09/29 12:32:53;;;;;;;;;10.25;10.00;;;;;37.77;30.91;99218.28;6205869;28;96781;-65
2023/09/29 12:35:58;;;;;;;;;9.25;8.25;;;;;37.57;30.95;99209.34;6234329;28;96558;-65
2023/09/29 12:39:03;;;;;;;;;9.00;8.00;;;;;36.97;31.09;99206.91;6232090;28;96964;-65
2023/09/29 12:42:09;;;;;;;;;7.40;7.00;;;;;36.47;33.64;99198.03;6202297;28;96721;-65
2023/09/29 12:45:12;;;;;;;;;9.67;7.67;;;;;36.14;33.18;99197.28;6221152;28;96837;-66
2023/09/29 12:48:16;;;;;;;;;9.00;8.40;;;;;36.23;33.75;99198.59;6233288;28;96303;-65
2023/09/29 12:51:20;;;;;;;;;8.00;8.00;;;;;36.34;32.94;99190.28;6230779;28;96256;-65
2023/09/29 12:54:30;;;;;;;;;8.00;7.40;;;;;36.42;32.57;99194.75;6237301;27;96939;-64
2023/09/29 12:57:35;;;;;;;;;8.00;8.00;;;;;36.44;35.24;99190.38;6221564;28;96363;-65
2023/09/29 13:00:38;;;;;;;;;10.00;9.00;;;;;36.16;32.86;99184.50;6239648;28;96692;-64
2023/09/29 13:03:42;;;;;;;;;9.00;8.00;;;;;35.98;34.16;99180.63;6239525;28;96351;-64
2023/09/29 13:06:45;;;;;;;;;8.00;6.40;;;;;35.77;33.89;99181.22;6238286;28;96724;-64
2023/09/29 13:09:48;;;;;;;;;8.00;7.00;;;;;35.56;34.61;99175.31;6220859;28;98783;-65
2023/09/29 13:12:54;;;;;;;;;10.80;10.20;;;;;35.71;35.32;99171.53;6239544;28;96420;-65
2023/09/29 13:15:59;;;;;;;;;8.75;8.00;;;;;35.46;34.92;99176.78;6229591;28;97496;-65
2023/09/29 13:19:04;;;;;;;;;8.40;8.00;;;;;35.30;35.79;99173.34;6229638;28;96743;-65
2023/09/29 13:22:07;;;;;;;;;8.25;8.00;;;;;35.11;36.51;99168.66;6237879;27;96372;-64
2023/09/29 13:25:10;;;;;;;;;8.00;7.00;;;;;34.80;36.06;99162.56;6220975;28;98887;-65
2023/09/29 13:28:15;;;;;;;;;7.00;6.00;;;;;34.62;34.71;99162.25;6203487;28;99843;-65
2023/09/29 13:31:18;;;;;;;;;9.00;9.00;;;;;34.41;35.09;99148.69;6238903;28;96594;-64
2023/09/29 13:34:22;;;;;;;;;10.00;9.00;;;;;34.60;36.44;99153.41;6206809;28;96575;-64
2023/09/29 13:37:25;;;;;;;;;8.40;8.40;;;;;34.74;36.38;99146.09;6220349;28;98545;-64
2023/09/29 13:40:28;;;;;;;;;10.00;9.40;;;;;34.55;36.00;99148.13;6239116;28;96905;-64
2023/09/29 13:43:33;;;;;;;;;8.00;7.00;;;;;34.55;39.92;99148.13;6236492;28;96402;-64
2023/09/29 13:46:36;;;;;;;;;9.60;8.60;;;;;34.55;35.58;99146.13;6215402;28;96467;-64
2023/09/29 13:49:59;;;;;;;;;8.00;8.00;;;;;34.54;36.03;99149.31;6227030;28;96467;-64
2023/09/29 13:53:03;;;;;;;;;10.00;7.33;;;;;34.25;37.30;99146.03;6224985;27;96427;-65
2023/09/29 13:56:06;;;;;;;;;5.40;5.40;;;;;34.25;38.60;99145.22;6236742;28;96901;-64
2023/09/29 13:59:11;;;;;;;;;8.00;8.00;;;;;33.87;38.23;99126.47;6237599;28;96367;-64
2023/09/29 14:02:15;;;;;;;;;9.40;8.00;;;;;33.83;39.92;99136.78;6237269;28;96589;-64
2023/09/29 14:05:18;;;;;;;;;8.60;7.60;;;;;34.02;42.48;99133.16;6235399;28;98571;-64
2023/09/29 14:08:22;;;;;;;;;7.00;6.00;;;;;34.28;41.93;99131.28;6236672;28;97234;-64